sensor_id;sensor_type;location;lat;lon;timestamp;P1;durP1;ratioP1;P2;durP2;ratioP2
17488;SDS011;8861;52.644;4.734;2023-07-22T00:01:10;9.73;;;6.97;;
17488;SDS011;8861;52.644;4.734;2023-07-22T00:03:37;9.63;;;6.90;;
17488;SDS011;8861;52.644;4.734;2023-07-22T00:06:05;9.70;;;7.07;;
17488;SDS011;8861;52.644;4.734;2023-07-22T00:08:32;11.07;;;7.30;;
17488;SDS011;8861;52.644;4.734;2023-07-22T00:11:00;11.60;;;7.50;;
17488;SDS011;8861;52.644;4.734;2023-07-22T00:13:28;9.93;;;6.93;;
17488;SDS011;8861;52.644;4.734;2023-07-22T00:15:55;10.73;;;7.50;;
17488;SDS011;8861;52.644;4.734;2023-07-22T00:18:24;9.37;;;7.17;;
17488;SDS011;8861;52.644;4.734;2023-07-22T00:20:52;10.13;;;6.90;;
17488;SDS011;8861;52.644;4.734;2023-07-22T00:23:19;9.23;;;6.57;;
17488;SDS011;8861;52.644;4.734;2023-07-22T00:25:46;10.03;;;6.93;;
17488;SDS011;8861;52.644;4.734;2023-07-22T00:28:14;9.33;;;6.43;;
17488;SDS011;8861;52.644;4.734;2023-07-22T00:30:43;9.77;;;7.20;;
17488;SDS011;8861;52.644;4.734;2023-07-22T00:33:10;10.87;;;7.00;;
17488;SDS011;8861;52.644;4.734;2023-07-22T00:35:37;10.17;;;6.83;;
17488;SDS011;8861;52.644;4.734;2023-07-22T00:38:04;10.00;;;7.03;;
17488;SDS011;8861;52.644;4.734;2023-07-22T00:40:31;9.87;;;6.90;;
17488;SDS011;8861;52.644;4.734;2023-07-22T00:42:58;9.83;;;7.10;;
17488;SDS011;8861;52.644;4.734;2023-07-22T00:45:25;10.47;;;7.30;;
17488;SDS011;8861;52.644;4.734;2023-07-22T00:47:53;10.43;;;7.33;;
17488;SDS011;8861;52.644;4.734;2023-07-22T00:50:20;10.37;;;7.03;;
17488;SDS011;8861;52.644;4.734;2023-07-22T00:52:50;10.47;;;6.47;;
17488;SDS011;8861;52.644;4.734;2023-07-22T00:55:17;8.93;;;6.67;;
17488;SDS011;8861;52.644;4.734;2023-07-22T00:57:44;10.63;;;6.70;;
17488;SDS011;8861;52.644;4.734;2023-07-22T01:00:12;8.90;;;6.80;;
17488;SDS011;8861;52.644;4.734;2023-07-22T01:02:41;9.73;;;6.53;;
17488;SDS011;8861;52.644;4.734;2023-07-22T01:05:10;10.87;;;6.80;;
17488;SDS011;8861;52.644;4.734;2023-07-22T01:07:39;10.30;;;6.40;;
17488;SDS011;8861;52.644;4.734;2023-07-22T01:10:06;8.93;;;6.87;;
17488;SDS011;8861;52.644;4.734;2023-07-22T01:12:34;9.00;;;6.80;;
17488;SDS011;8861;52.644;4.734;2023-07-22T01:15:01;9.70;;;6.77;;
17488;SDS011;8861;52.644;4.734;2023-07-22T01:17:32;8.93;;;6.57;;
17488;SDS011;8861;52.644;4.734;2023-07-22T01:20:00;10.30;;;6.73;;
17488;SDS011;8861;52.644;4.734;2023-07-22T01:22:28;10.20;;;7.23;;
17488;SDS011;8861;52.644;4.734;2023-07-22T01:24:57;8.80;;;6.23;;
17488;SDS011;8861;52.644;4.734;2023-07-22T01:27:25;9.93;;;7.33;;
17488;SDS011;8861;52.644;4.734;2023-07-22T01:29:52;9.27;;;6.40;;
17488;SDS011;8861;52.644;4.734;2023-07-22T01:32:19;8.83;;;6.10;;
17488;SDS011;8861;52.644;4.734;2023-07-22T01:34:46;8.30;;;6.43;;
17488;SDS011;8861;52.644;4.734;2023-07-22T01:37:13;8.30;;;6.10;;
17488;SDS011;8861;52.644;4.734;2023-07-22T01:39:40;9.43;;;6.40;;
17488;SDS011;8861;52.644;4.734;2023-07-22T01:42:08;8.00;;;5.87;;
17488;SDS011;8861;52.644;4.734;2023-07-22T01:44:35;8.13;;;5.70;;
17488;SDS011;8861;52.644;4.734;2023-07-22T01:47:02;8.33;;;6.20;;
17488;SDS011;8861;52.644;4.734;2023-07-22T01:49:30;8.27;;;6.17;;
17488;SDS011;8861;52.644;4.734;2023-07-22T01:51:56;7.93;;;5.80;;
17488;SDS011;8861;52.644;4.734;2023-07-22T01:54:23;8.50;;;5.97;;
17488;SDS011;8861;52.644;4.734;2023-07-22T01:56:51;7.97;;;5.83;;
17488;SDS011;8861;52.644;4.734;2023-07-22T01:59:19;7.67;;;5.80;;
17488;SDS011;8861;52.644;4.734;2023-07-22T02:01:46;8.73;;;6.00;;
17488;SDS011;8861;52.644;4.734;2023-07-22T02:04:13;9.33;;;6.20;;
17488;SDS011;8861;52.644;4.734;2023-07-22T02:06:40;8.40;;;6.10;;
17488;SDS011;8861;52.644;4.734;2023-07-22T02:09:07;9.83;;;6.27;;
17488;SDS011;8861;52.644;4.734;2023-07-22T02:11:34;10.70;;;6.90;;
17488;SDS011;8861;52.644;4.734;2023-07-22T02:14:02;9.37;;;6.47;;
17488;SDS011;8861;52.644;4.734;2023-07-22T02:16:33;8.70;;;6.40;;
17488;SDS011;8861;52.644;4.734;2023-07-22T02:19:01;11.27;;;6.60;;
17488;SDS011;8861;52.644;4.734;2023-07-22T02:21:28;9.17;;;6.53;;
17488;SDS011;8861;52.644;4.734;2023-07-22T02:23:55;8.33;;;6.20;;
17488;SDS011;8861;52.644;4.734;2023-07-22T02:26:22;9.63;;;6.57;;
17488;SDS011;8861;52.644;4.734;2023-07-22T02:28:49;9.67;;;6.30;;
17488;SDS011;8861;52.644;4.734;2023-07-22T02:31:16;8.10;;;6.10;;
17488;SDS011;8861;52.644;4.734;2023-07-22T02:33:45;8.40;;;6.10;;
17488;SDS011;8861;52.644;4.734;2023-07-22T02:36:13;10.10;;;6.47;;
17488;SDS011;8861;52.644;4.734;2023-07-22T02:38:40;10.13;;;6.37;;
17488;SDS011;8861;52.644;4.734;2023-07-22T02:41:07;12.20;;;7.07;;
17488;SDS011;8861;52.644;4.734;2023-07-22T02:43:34;11.20;;;7.20;;
17488;SDS011;8861;52.644;4.734;2023-07-22T02:46:01;10.60;;;6.50;;
17488;SDS011;8861;52.644;4.734;2023-07-22T02:48:29;9.30;;;6.70;;
17488;SDS011;8861;52.644;4.734;2023-07-22T02:51:02;11.33;;;6.70;;
17488;SDS011;8861;52.644;4.734;2023-07-22T02:53:30;9.23;;;6.27;;
17488;SDS011;8861;52.644;4.734;2023-07-22T02:55:57;9.00;;;5.83;;
17488;SDS011;8861;52.644;4.734;2023-07-22T02:58:25;8.67;;;5.70;;
17488;SDS011;8861;52.644;4.734;2023-07-22T03:00:52;7.73;;;5.60;;
17488;SDS011;8861;52.644;4.734;2023-07-22T03:03:19;7.43;;;5.73;;
17488;SDS011;8861;52.644;4.734;2023-07-22T03:05:46;6.70;;;4.70;;
17488;SDS011;8861;52.644;4.734;2023-07-22T03:08:14;6.47;;;4.63;;
17488;SDS011;8861;52.644;4.734;2023-07-22T03:10:43;5.83;;;4.73;;
17488;SDS011;8861;52.644;4.734;2023-07-22T03:13:13;7.13;;;4.50;;
17488;SDS011;8861;52.644;4.734;2023-07-22T03:15:40;7.67;;;4.20;;
17488;SDS011;8861;52.644;4.734;2023-07-22T03:18:07;5.57;;;4.50;;
17488;SDS011;8861;52.644;4.734;2023-07-22T03:20:35;7.73;;;4.20;;
17488;SDS011;8861;52.644;4.734;2023-07-22T03:23:03;6.43;;;4.10;;
17488;SDS011;8861;52.644;4.734;2023-07-22T03:25:31;7.13;;;4.40;;
17488;SDS011;8861;52.644;4.734;2023-07-22T03:27:59;7.40;;;4.27;;
17488;SDS011;8861;52.644;4.734;2023-07-22T03:30:29;5.43;;;4.03;;
17488;SDS011;8861;52.644;4.734;2023-07-22T03:32:57;5.17;;;4.27;;
17488;SDS011;8861;52.644;4.734;2023-07-22T03:35:24;5.83;;;3.93;;
17488;SDS011;8861;52.644;4.734;2023-07-22T03:37:51;4.83;;;3.70;;
17488;SDS011;8861;52.644;4.734;2023-07-22T03:40:18;4.53;;;3.77;;
17488;SDS011;8861;52.644;4.734;2023-07-22T03:42:47;5.70;;;4.10;;
17488;SDS011;8861;52.644;4.734;2023-07-22T03:45:15;5.30;;;3.90;;
17488;SDS011;8861;52.644;4.734;2023-07-22T03:47:43;4.97;;;3.87;;
17488;SDS011;8861;52.644;4.734;2023-07-22T03:50:10;6.20;;;3.90;;
17488;SDS011;8861;52.644;4.734;2023-07-22T03:52:37;6.70;;;4.30;;
17488;SDS011;8861;52.644;4.734;2023-07-22T03:55:05;6.23;;;3.97;;
17488;SDS011;8861;52.644;4.734;2023-07-22T03:57:32;5.30;;;3.87;;
17488;SDS011;8861;52.644;4.734;2023-07-22T04:00:00;5.30;;;4.00;;
17488;SDS011;8861;52.644;4.734;2023-07-22T04:02:28;6.23;;;4.23;;
17488;SDS011;8861;52.644;4.734;2023-07-22T04:04:55;5.50;;;4.00;;
17488;SDS011;8861;52.644;4.734;2023-07-22T04:07:22;5.13;;;3.80;;
17488;SDS011;8861;52.644;4.734;2023-07-22T04:09:49;5.60;;;4.03;;
17488;SDS011;8861;52.644;4.734;2023-07-22T04:12:16;5.53;;;3.90;;
17488;SDS011;8861;52.644;4.734;2023-07-22T04:14:43;5.03;;;3.83;;
17488;SDS011;8861;52.644;4.734;2023-07-22T04:17:12;5.03;;;4.00;;
17488;SDS011;8861;52.644;4.734;2023-07-22T04:19:40;5.60;;;4.20;;
17488;SDS011;8861;52.644;4.734;2023-07-22T04:22:07;5.07;;;3.93;;
17488;SDS011;8861;52.644;4.734;2023-07-22T04:24:35;5.33;;;4.13;;
17488;SDS011;8861;52.644;4.734;2023-07-22T04:27:02;5.40;;;4.00;;
17488;SDS011;8861;52.644;4.734;2023-07-22T04:29:30;4.80;;;3.50;;
17488;SDS011;8861;52.644;4.734;2023-07-22T04:31:57;5.17;;;3.73;;
17488;SDS011;8861;52.644;4.734;2023-07-22T04:34:29;4.13;;;3.53;;
17488;SDS011;8861;52.644;4.734;2023-07-22T04:36:56;4.83;;;3.50;;
17488;SDS011;8861;52.644;4.734;2023-07-22T04:39:23;4.77;;;3.47;;
17488;SDS011;8861;52.644;4.734;2023-07-22T04:41:50;5.60;;;3.77;;
17488;SDS011;8861;52.644;4.734;2023-07-22T04:44:18;4.87;;;4.07;;
17488;SDS011;8861;52.644;4.734;2023-07-22T04:46:45;4.67;;;3.80;;
17488;SDS011;8861;52.644;4.734;2023-07-22T04:49:13;5.20;;;3.90;;
17488;SDS011;8861;52.644;4.734;2023-07-22T04:51:44;4.60;;;3.63;;
17488;SDS011;8861;52.644;4.734;2023-07-22T04:54:11;5.60;;;3.83;;
17488;SDS011;8861;52.644;4.734;2023-07-22T04:56:38;5.23;;;3.73;;
17488;SDS011;8861;52.644;4.734;2023-07-22T04:59:05;5.10;;;3.30;;
17488;SDS011;8861;52.644;4.734;2023-07-22T05:01:33;5.10;;;3.63;;
17488;SDS011;8861;52.644;4.734;2023-07-22T05:04:00;4.77;;;3.83;;
17488;SDS011;8861;52.644;4.734;2023-07-22T05:06:28;4.70;;;3.63;;
17488;SDS011;8861;52.644;4.734;2023-07-22T05:08:56;4.03;;;3.40;;
17488;SDS011;8861;52.644;4.734;2023-07-22T05:11:23;3.83;;;3.27;;
17488;SDS011;8861;52.644;4.734;2023-07-22T05:13:50;4.33;;;3.40;;
17488;SDS011;8861;52.644;4.734;2023-07-22T05:16:17;3.90;;;3.40;;
17488;SDS011;8861;52.644;4.734;2023-07-22T05:18:46;4.00;;;3.30;;
17488;SDS011;8861;52.644;4.734;2023-07-22T05:21:13;3.87;;;3.40;;
17488;SDS011;8861;52.644;4.734;2023-07-22T05:23:40;4.33;;;3.17;;
17488;SDS011;8861;52.644;4.734;2023-07-22T05:26:08;5.27;;;3.77;;
17488;SDS011;8861;52.644;4.734;2023-07-22T05:28:35;4.90;;;3.30;;
17488;SDS011;8861;52.644;4.734;2023-07-22T05:31:02;6.13;;;3.63;;
17488;SDS011;8861;52.644;4.734;2023-07-22T05:33:29;4.30;;;3.50;;
17488;SDS011;8861;52.644;4.734;2023-07-22T05:35:56;4.13;;;3.30;;
17488;SDS011;8861;52.644;4.734;2023-07-22T05:38:24;4.70;;;3.57;;
17488;SDS011;8861;52.644;4.734;2023-07-22T05:40:51;4.57;;;3.70;;
17488;SDS011;8861;52.644;4.734;2023-07-22T05:43:20;3.60;;;3.10;;
17488;SDS011;8861;52.644;4.734;2023-07-22T05:45:47;4.43;;;3.33;;
17488;SDS011;8861;52.644;4.734;2023-07-22T05:48:14;4.00;;;3.00;;
17488;SDS011;8861;52.644;4.734;2023-07-22T05:50:41;4.03;;;3.33;;
17488;SDS011;8861;52.644;4.734;2023-07-22T05:53:08;3.93;;;3.00;;
17488;SDS011;8861;52.644;4.734;2023-07-22T05:55:35;3.40;;;3.10;;
17488;SDS011;8861;52.644;4.734;2023-07-22T05:58:02;3.90;;;3.20;;
17488;SDS011;8861;52.644;4.734;2023-07-22T06:00:32;4.77;;;3.33;;
17488;SDS011;8861;52.644;4.734;2023-07-22T06:03:00;4.17;;;3.53;;
17488;SDS011;8861;52.644;4.734;2023-07-22T06:05:27;7.43;;;4.00;;
17488;SDS011;8861;52.644;4.734;2023-07-22T06:07:54;7.63;;;4.70;;
17488;SDS011;8861;52.644;4.734;2023-07-22T06:10:22;6.87;;;3.87;;
17488;SDS011;8861;52.644;4.734;2023-07-22T06:12:49;4.87;;;3.73;;
17488;SDS011;8861;52.644;4.734;2023-07-22T06:15:16;5.77;;;4.13;;
17488;SDS011;8861;52.644;4.734;2023-07-22T06:17:44;6.17;;;3.73;;
17488;SDS011;8861;52.644;4.734;2023-07-22T06:20:11;5.30;;;3.90;;
17488;SDS011;8861;52.644;4.734;2023-07-22T06:22:39;6.07;;;4.00;;
17488;SDS011;8861;52.644;4.734;2023-07-22T06:25:06;6.80;;;3.97;;
17488;SDS011;8861;52.644;4.734;2023-07-22T06:27:33;7.27;;;4.30;;
17488;SDS011;8861;52.644;4.734;2023-07-22T06:30:01;7.10;;;4.20;;
17488;SDS011;8861;52.644;4.734;2023-07-22T06:32:28;5.90;;;3.93;;
17488;SDS011;8861;52.644;4.734;2023-07-22T06:34:56;7.90;;;4.70;;
17488;SDS011;8861;52.644;4.734;2023-07-22T06:37:24;5.37;;;4.00;;
17488;SDS011;8861;52.644;4.734;2023-07-22T06:39:51;6.90;;;4.40;;
17488;SDS011;8861;52.644;4.734;2023-07-22T06:42:18;7.07;;;4.57;;
17488;SDS011;8861;52.644;4.734;2023-07-22T06:44:45;8.37;;;4.80;;
17488;SDS011;8861;52.644;4.734;2023-07-22T06:47:12;7.23;;;4.90;;
17488;SDS011;8861;52.644;4.734;2023-07-22T06:49:39;8.07;;;4.83;;
17488;SDS011;8861;52.644;4.734;2023-07-22T06:52:08;5.93;;;4.90;;
17488;SDS011;8861;52.644;4.734;2023-07-22T06:54:35;6.17;;;5.00;;
17488;SDS011;8861;52.644;4.734;2023-07-22T06:57:02;7.97;;;6.10;;
17488;SDS011;8861;52.644;4.734;2023-07-22T06:59:31;8.30;;;5.93;;
17488;SDS011;8861;52.644;4.734;2023-07-22T07:01:58;7.40;;;5.60;;
17488;SDS011;8861;52.644;4.734;2023-07-22T07:04:25;7.93;;;5.37;;
17488;SDS011;8861;52.644;4.734;2023-07-22T07:06:52;6.70;;;5.00;;
17488;SDS011;8861;52.644;4.734;2023-07-22T07:09:21;5.33;;;4.40;;
17488;SDS011;8861;52.644;4.734;2023-07-22T07:11:48;5.00;;;4.17;;
17488;SDS011;8861;52.644;4.734;2023-07-22T07:14:15;4.60;;;4.00;;
17488;SDS011;8861;52.644;4.734;2023-07-22T07:16:42;4.63;;;3.87;;
17488;SDS011;8861;52.644;4.734;2023-07-22T07:19:10;4.73;;;3.93;;
17488;SDS011;8861;52.644;4.734;2023-07-22T07:21:37;4.20;;;3.70;;
17488;SDS011;8861;52.644;4.734;2023-07-22T07:24:04;5.33;;;4.40;;
17488;SDS011;8861;52.644;4.734;2023-07-22T07:26:33;4.57;;;3.80;;
17488;SDS011;8861;52.644;4.734;2023-07-22T07:29:00;4.03;;;3.57;;
17488;SDS011;8861;52.644;4.734;2023-07-22T07:31:27;4.37;;;3.77;;
17488;SDS011;8861;52.644;4.734;2023-07-22T07:33:54;3.97;;;3.63;;
17488;SDS011;8861;52.644;4.734;2023-07-22T07:36:21;3.50;;;3.20;;
17488;SDS011;8861;52.644;4.734;2023-07-22T07:38:48;3.67;;;3.37;;
17488;SDS011;8861;52.644;4.734;2023-07-22T07:41:15;3.60;;;3.30;;
17488;SDS011;8861;52.644;4.734;2023-07-22T07:43:43;3.60;;;3.30;;
17488;SDS011;8861;52.644;4.734;2023-07-22T07:46:16;3.40;;;3.10;;
17488;SDS011;8861;52.644;4.734;2023-07-22T07:48:47;4.00;;;3.60;;
17488;SDS011;8861;52.644;4.734;2023-07-22T07:51:15;4.30;;;3.70;;
17488;SDS011;8861;52.644;4.734;2023-07-22T07:53:43;4.23;;;3.83;;
17488;SDS011;8861;52.644;4.734;2023-07-22T07:56:12;4.23;;;3.80;;
17488;SDS011;8861;52.644;4.734;2023-07-22T07:58:39;4.83;;;4.13;;
17488;SDS011;8861;52.644;4.734;2023-07-22T08:01:08;4.07;;;3.50;;
17488;SDS011;8861;52.644;4.734;2023-07-22T08:03:35;5.03;;;4.23;;
17488;SDS011;8861;52.644;4.734;2023-07-22T08:06:03;4.50;;;4.10;;
17488;SDS011;8861;52.644;4.734;2023-07-22T08:08:31;4.17;;;3.77;;
17488;SDS011;8861;52.644;4.734;2023-07-22T08:10:59;5.10;;;4.30;;
17488;SDS011;8861;52.644;4.734;2023-07-22T08:13:26;7.07;;;5.40;;
17488;SDS011;8861;52.644;4.734;2023-07-22T08:15:55;6.57;;;5.53;;
17488;SDS011;8861;52.644;4.734;2023-07-22T08:18:23;6.70;;;5.20;;
17488;SDS011;8861;52.644;4.734;2023-07-22T08:20:51;7.30;;;5.93;;
17488;SDS011;8861;52.644;4.734;2023-07-22T08:23:18;7.00;;;5.63;;
17488;SDS011;8861;52.644;4.734;2023-07-22T08:25:45;7.03;;;5.90;;
17488;SDS011;8861;52.644;4.734;2023-07-22T08:28:12;9.50;;;7.40;;
17488;SDS011;8861;52.644;4.734;2023-07-22T08:30:40;9.40;;;7.43;;
17488;SDS011;8861;52.644;4.734;2023-07-22T08:33:07;7.80;;;6.13;;
17488;SDS011;8861;52.644;4.734;2023-07-22T08:35:36;7.57;;;6.17;;
17488;SDS011;8861;52.644;4.734;2023-07-22T08:38:03;8.67;;;6.77;;
17488;SDS011;8861;52.644;4.734;2023-07-22T08:40:33;9.30;;;7.10;;
17488;SDS011;8861;52.644;4.734;2023-07-22T08:43:01;8.93;;;6.60;;
17488;SDS011;8861;52.644;4.734;2023-07-22T08:45:30;8.43;;;6.10;;
17488;SDS011;8861;52.644;4.734;2023-07-22T08:47:59;9.50;;;6.20;;
17488;SDS011;8861;52.644;4.734;2023-07-22T08:50:32;7.67;;;5.17;;
17488;SDS011;8861;52.644;4.734;2023-07-22T08:53:07;7.97;;;5.30;;
17488;SDS011;8861;52.644;4.734;2023-07-22T08:55:35;8.20;;;4.60;;
17488;SDS011;8861;52.644;4.734;2023-07-22T08:58:05;8.57;;;4.73;;
17488;SDS011;8861;52.644;4.734;2023-07-22T09:00:34;5.83;;;4.63;;
17488;SDS011;8861;52.644;4.734;2023-07-22T09:03:01;6.23;;;4.63;;
17488;SDS011;8861;52.644;4.734;2023-07-22T09:05:29;6.03;;;4.33;;
17488;SDS011;8861;52.644;4.734;2023-07-22T09:08:00;6.93;;;5.03;;
17488;SDS011;8861;52.644;4.734;2023-07-22T09:10:29;8.23;;;5.10;;
17488;SDS011;8861;52.644;4.734;2023-07-22T09:12:56;6.70;;;4.90;;
17488;SDS011;8861;52.644;4.734;2023-07-22T09:15:24;6.83;;;4.40;;
17488;SDS011;8861;52.644;4.734;2023-07-22T09:17:51;6.33;;;4.67;;
17488;SDS011;8861;52.644;4.734;2023-07-22T09:20:20;8.53;;;4.27;;
17488;SDS011;8861;52.644;4.734;2023-07-22T09:22:48;6.97;;;4.80;;
17488;SDS011;8861;52.644;4.734;2023-07-22T09:25:18;5.47;;;4.37;;
17488;SDS011;8861;52.644;4.734;2023-07-22T09:27:47;6.07;;;4.50;;
17488;SDS011;8861;52.644;4.734;2023-07-22T09:30:21;7.63;;;5.00;;
17488;SDS011;8861;52.644;4.734;2023-07-22T09:32:49;5.43;;;4.40;;
17488;SDS011;8861;52.644;4.734;2023-07-22T09:35:17;5.30;;;3.93;;
17488;SDS011;8861;52.644;4.734;2023-07-22T09:37:44;6.80;;;4.30;;
17488;SDS011;8861;52.644;4.734;2023-07-22T09:40:15;6.17;;;4.00;;
17488;SDS011;8861;52.644;4.734;2023-07-22T09:42:49;5.87;;;4.07;;
17488;SDS011;8861;52.644;4.734;2023-07-22T09:45:17;7.03;;;4.70;;
17488;SDS011;8861;52.644;4.734;2023-07-22T09:47:46;4.87;;;3.97;;
17488;SDS011;8861;52.644;4.734;2023-07-22T09:50:15;6.33;;;4.07;;
17488;SDS011;8861;52.644;4.734;2023-07-22T09:52:46;7.03;;;3.97;;
17488;SDS011;8861;52.644;4.734;2023-07-22T09:55:14;7.17;;;4.00;;
17488;SDS011;8861;52.644;4.734;2023-07-22T09:57:45;5.30;;;3.80;;
17488;SDS011;8861;52.644;4.734;2023-07-22T10:00:14;7.57;;;3.83;;
17488;SDS011;8861;52.644;4.734;2023-07-22T10:02:43;6.70;;;4.00;;
17488;SDS011;8861;52.644;4.734;2023-07-22T10:05:12;7.30;;;4.20;;
17488;SDS011;8861;52.644;4.734;2023-07-22T10:07:45;8.10;;;4.30;;
17488;SDS011;8861;52.644;4.734;2023-07-22T10:10:14;6.73;;;4.13;;
17488;SDS011;8861;52.644;4.734;2023-07-22T10:12:43;6.23;;;3.97;;
17488;SDS011;8861;52.644;4.734;2023-07-22T10:15:12;5.90;;;3.80;;
17488;SDS011;8861;52.644;4.734;2023-07-22T10:17:40;6.07;;;4.07;;
17488;SDS011;8861;52.644;4.734;2023-07-22T10:20:09;6.73;;;3.93;;
17488;SDS011;8861;52.644;4.734;2023-07-22T10:22:40;4.57;;;3.40;;
17488;SDS011;8861;52.644;4.734;2023-07-22T10:25:09;7.47;;;4.33;;
17488;SDS011;8861;52.644;4.734;2023-07-22T10:27:37;5.17;;;3.20;;
17488;SDS011;8861;52.644;4.734;2023-07-22T10:30:08;5.10;;;3.40;;
17488;SDS011;8861;52.644;4.734;2023-07-22T10:32:37;4.00;;;3.43;;
17488;SDS011;8861;52.644;4.734;2023-07-22T10:35:07;4.77;;;3.40;;
17488;SDS011;8861;52.644;4.734;2023-07-22T10:37:36;5.43;;;3.10;;
17488;SDS011;8861;52.644;4.734;2023-07-22T10:40:19;5.07;;;3.17;;
17488;SDS011;8861;52.644;4.734;2023-07-22T10:42:57;4.20;;;2.67;;
17488;SDS011;8861;52.644;4.734;2023-07-22T10:45:28;4.20;;;2.87;;
17488;SDS011;8861;52.644;4.734;2023-07-22T10:48:00;4.50;;;2.70;;
17488;SDS011;8861;52.644;4.734;2023-07-22T10:50:39;3.87;;;2.40;;
17488;SDS011;8861;52.644;4.734;2023-07-22T10:53:08;4.63;;;2.67;;
17488;SDS011;8861;52.644;4.734;2023-07-22T10:58:55;4.03;;;2.90;;
17488;SDS011;8861;52.644;4.734;2023-07-22T11:01:30;4.43;;;2.70;;
17488;SDS011;8861;52.644;4.734;2023-07-22T11:04:11;6.20;;;3.13;;
17488;SDS011;8861;52.644;4.734;2023-07-22T11:06:51;4.93;;;2.90;;
17488;SDS011;8861;52.644;4.734;2023-07-22T11:09:39;6.00;;;3.30;;
17488;SDS011;8861;52.644;4.734;2023-07-22T11:12:10;4.93;;;3.07;;
17488;SDS011;8861;52.644;4.734;2023-07-22T11:14:40;4.23;;;3.10;;
17488;SDS011;8861;52.644;4.734;2023-07-22T11:17:12;5.33;;;3.20;;
17488;SDS011;8861;52.644;4.734;2023-07-22T11:19:40;5.00;;;3.20;;
17488;SDS011;8861;52.644;4.734;2023-07-22T11:22:07;5.60;;;3.03;;
17488;SDS011;8861;52.644;4.734;2023-07-22T11:24:34;10.03;;;3.13;;
17488;SDS011;8861;52.644;4.734;2023-07-22T11:27:02;6.37;;;3.23;;
17488;SDS011;8861;52.644;4.734;2023-07-22T11:29:30;5.77;;;3.27;;
17488;SDS011;8861;52.644;4.734;2023-07-22T11:31:57;5.33;;;3.30;;
17488;SDS011;8861;52.644;4.734;2023-07-22T11:34:26;6.20;;;3.20;;
17488;SDS011;8861;52.644;4.734;2023-07-22T11:36:54;9.90;;;3.80;;
17488;SDS011;8861;52.644;4.734;2023-07-22T11:39:23;7.90;;;4.10;;
17488;SDS011;8861;52.644;4.734;2023-07-22T11:41:52;8.40;;;4.00;;
17488;SDS011;8861;52.644;4.734;2023-07-22T11:44:20;8.93;;;4.20;;
17488;SDS011;8861;52.644;4.734;2023-07-22T11:46:51;7.77;;;4.00;;
17488;SDS011;8861;52.644;4.734;2023-07-22T11:49:23;7.30;;;4.10;;
17488;SDS011;8861;52.644;4.734;2023-07-22T11:51:56;8.10;;;4.50;;
17488;SDS011;8861;52.644;4.734;2023-07-22T11:54:24;10.13;;;5.00;;
17488;SDS011;8861;52.644;4.734;2023-07-22T11:56:51;9.93;;;5.10;;
17488;SDS011;8861;52.644;4.734;2023-07-22T11:59:31;8.63;;;5.20;;
17488;SDS011;8861;52.644;4.734;2023-07-22T12:01:59;10.83;;;5.57;;
17488;SDS011;8861;52.644;4.734;2023-07-22T12:04:28;9.60;;;5.83;;
17488;SDS011;8861;52.644;4.734;2023-07-22T12:06:55;8.30;;;5.97;;
17488;SDS011;8861;52.644;4.734;2023-07-22T12:09:22;9.57;;;5.80;;
17488;SDS011;8861;52.644;4.734;2023-07-22T12:11:54;9.57;;;5.77;;
17488;SDS011;8861;52.644;4.734;2023-07-22T12:14:22;9.10;;;5.60;;
17488;SDS011;8861;52.644;4.734;2023-07-22T12:16:52;9.50;;;5.93;;
17488;SDS011;8861;52.644;4.734;2023-07-22T12:19:22;7.03;;;5.70;;
17488;SDS011;8861;52.644;4.734;2023-07-22T12:21:51;8.23;;;5.00;;
17488;SDS011;8861;52.644;4.734;2023-07-22T12:24:18;7.87;;;4.87;;
17488;SDS011;8861;52.644;4.734;2023-07-22T12:26:45;7.10;;;4.40;;
17488;SDS011;8861;52.644;4.734;2023-07-22T12:29:12;7.57;;;4.47;;
17488;SDS011;8861;52.644;4.734;2023-07-22T12:31:39;7.43;;;4.87;;
17488;SDS011;8861;52.644;4.734;2023-07-22T12:34:06;9.60;;;4.40;;
17488;SDS011;8861;52.644;4.734;2023-07-22T12:36:33;9.20;;;5.10;;
17488;SDS011;8861;52.644;4.734;2023-07-22T12:39:01;8.03;;;4.77;;
17488;SDS011;8861;52.644;4.734;2023-07-22T12:41:30;8.80;;;4.97;;
17488;SDS011;8861;52.644;4.734;2023-07-22T12:43:57;8.10;;;4.53;;
17488;SDS011;8861;52.644;4.734;2023-07-22T12:46:23;9.03;;;4.77;;
17488;SDS011;8861;52.644;4.734;2023-07-22T12:48:50;6.93;;;4.17;;
17488;SDS011;8861;52.644;4.734;2023-07-22T12:51:17;6.97;;;4.20;;
17488;SDS011;8861;52.644;4.734;2023-07-22T12:53:44;9.23;;;5.40;;
17488;SDS011;8861;52.644;4.734;2023-07-22T12:56:13;10.50;;;5.27;;
17488;SDS011;8861;52.644;4.734;2023-07-22T12:58:40;8.73;;;5.20;;
17488;SDS011;8861;52.644;4.734;2023-07-22T13:01:06;7.83;;;4.77;;
17488;SDS011;8861;52.644;4.734;2023-07-22T13:03:33;8.40;;;4.50;;
17488;SDS011;8861;52.644;4.734;2023-07-22T13:06:01;7.13;;;4.50;;
17488;SDS011;8861;52.644;4.734;2023-07-22T13:08:27;8.10;;;4.90;;
17488;SDS011;8861;52.644;4.734;2023-07-22T13:10:55;9.40;;;5.03;;
17488;SDS011;8861;52.644;4.734;2023-07-22T13:13:23;10.17;;;5.07;;
17488;SDS011;8861;52.644;4.734;2023-07-22T13:15:50;6.03;;;4.70;;
17488;SDS011;8861;52.644;4.734;2023-07-22T13:18:17;7.13;;;4.40;;
17488;SDS011;8861;52.644;4.734;2023-07-22T13:20:44;6.63;;;4.40;;
17488;SDS011;8861;52.644;4.734;2023-07-22T13:23:11;8.50;;;4.70;;
17488;SDS011;8861;52.644;4.734;2023-07-22T13:25:38;6.27;;;4.17;;
17488;SDS011;8861;52.644;4.734;2023-07-22T13:28:05;6.40;;;4.47;;
17488;SDS011;8861;52.644;4.734;2023-07-22T13:30:33;6.30;;;4.40;;
17488;SDS011;8861;52.644;4.734;2023-07-22T13:33:00;7.33;;;4.83;;
17488;SDS011;8861;52.644;4.734;2023-07-22T13:35:27;8.70;;;4.00;;
17488;SDS011;8861;52.644;4.734;2023-07-22T13:37:54;6.47;;;3.83;;
17488;SDS011;8861;52.644;4.734;2023-07-22T13:40:21;5.43;;;3.70;;
17488;SDS011;8861;52.644;4.734;2023-07-22T13:42:48;5.43;;;3.30;;
17488;SDS011;8861;52.644;4.734;2023-07-22T13:45:15;4.50;;;3.20;;
17488;SDS011;8861;52.644;4.734;2023-07-22T13:47:43;5.67;;;3.10;;
17488;SDS011;8861;52.644;4.734;2023-07-22T13:50:10;5.90;;;3.40;;
17488;SDS011;8861;52.644;4.734;2023-07-22T13:52:37;4.23;;;3.13;;
17488;SDS011;8861;52.644;4.734;2023-07-22T13:55:06;5.63;;;3.43;;
17488;SDS011;8861;52.644;4.734;2023-07-22T13:57:34;5.50;;;3.30;;
17488;SDS011;8861;52.644;4.734;2023-07-22T14:00:01;6.03;;;3.40;;
17488;SDS011;8861;52.644;4.734;2023-07-22T14:02:32;5.70;;;3.33;;
17488;SDS011;8861;52.644;4.734;2023-07-22T14:05:00;8.67;;;3.73;;
17488;SDS011;8861;52.644;4.734;2023-07-22T14:07:28;5.67;;;3.30;;
17488;SDS011;8861;52.644;4.734;2023-07-22T14:09:55;6.80;;;3.20;;
17488;SDS011;8861;52.644;4.734;2023-07-22T14:12:22;7.10;;;3.30;;
17488;SDS011;8861;52.644;4.734;2023-07-22T14:14:49;8.30;;;3.50;;
17488;SDS011;8861;52.644;4.734;2023-07-22T14:17:16;9.03;;;3.23;;
17488;SDS011;8861;52.644;4.734;2023-07-22T14:19:43;6.60;;;3.20;;
17488;SDS011;8861;52.644;4.734;2023-07-22T14:22:11;7.03;;;3.40;;
17488;SDS011;8861;52.644;4.734;2023-07-22T14:24:38;12.47;;;3.50;;
17488;SDS011;8861;52.644;4.734;2023-07-22T14:27:05;5.23;;;3.20;;
17488;SDS011;8861;52.644;4.734;2023-07-22T14:29:33;4.27;;;2.80;;
17488;SDS011;8861;52.644;4.734;2023-07-22T14:32:00;5.60;;;2.90;;
17488;SDS011;8861;52.644;4.734;2023-07-22T14:34:27;6.90;;;3.00;;
17488;SDS011;8861;52.644;4.734;2023-07-22T14:36:57;6.63;;;3.17;;
17488;SDS011;8861;52.644;4.734;2023-07-22T14:39:25;5.20;;;3.30;;
17488;SDS011;8861;52.644;4.734;2023-07-22T14:41:52;4.00;;;3.17;;
17488;SDS011;8861;52.644;4.734;2023-07-22T14:44:20;7.00;;;3.80;;
17488;SDS011;8861;52.644;4.734;2023-07-22T14:46:47;5.40;;;3.10;;
17488;SDS011;8861;52.644;4.734;2023-07-22T14:49:14;6.80;;;3.60;;
17488;SDS011;8861;52.644;4.734;2023-07-22T14:51:41;4.97;;;3.07;;
17488;SDS011;8861;52.644;4.734;2023-07-22T14:54:08;4.87;;;2.93;;
17488;SDS011;8861;52.644;4.734;2023-07-22T14:56:37;4.07;;;2.90;;
17488;SDS011;8861;52.644;4.734;2023-07-22T14:59:04;5.07;;;2.90;;
17488;SDS011;8861;52.644;4.734;2023-07-22T15:01:36;4.13;;;2.83;;
17488;SDS011;8861;52.644;4.734;2023-07-22T15:04:04;9.07;;;3.40;;
17488;SDS011;8861;52.644;4.734;2023-07-22T15:06:31;5.67;;;3.10;;
17488;SDS011;8861;52.644;4.734;2023-07-22T15:08:58;5.90;;;2.83;;